首页
METAR-TAF:

METAR-TAF

机场 :

Hay River, 西北特區, 加拿大

纬度: 60-50N, 经度: 115-47W, 海拔: 164米

当前天气观测

该预报发布于1小时和11分钟前的18:00 UTC
风速7节,风向南转南东
温度 -22°C
湿度 64%
气压 1027 hPa
能見度: 24.1公里
散云层高于24000英尺

METAR: CYHY 181800Z 16007KT 15SM SCT240 M22/M27 A3032 RMK CI3 SLP295

时间: 12:11 (19:11 UTC)

预报

该预报发布于1小时和33分钟前的17:38 UTC
预报有效从18日的 18点(UTC)到 19日的 06点(UTC)
风速10节,风向南转南东
能見度: 10公里
少量云层高于22000英尺
从 19日的 0200点(UTC)
风速10节,风向
能見度: 10公里
少量云层高于8000英尺

TAF: CYHY 181738Z 1818/1906 15010KT P6SM FEW220 FM190200 17010KT P6SM FEW080 RMK NXT FCST BY 190000Z

超过4000个机场的气象观测和天气预报(METAR&TAF报告)。

可查询的气象台以黄色和红色小点在地图上表示。

将鼠标移到小点上方,可查看气象台名称。

然后点击查看天气观测和预报。

如需切换地图:点击带黑十字的绿色按钮放大地图;点击带横线的绿色按钮缩小地图;或者点击绿色箭头查看邻近地区的地图。


METAR-TAF: